This is the latest recevied weather packets stored in our database for station/object JA3YAI-13. If no packets are shown the sender has not sent any weather packets the latest 1 day(s).
| Time | Temp. | Humidity | Pressure | Rain* | Wind** | Luminosity | Snow |
|---|---|---|---|---|---|---|---|
| 1778082412 | 13.33° C | 95% | 1009.2 hPa | 0 mm | - | - | - |
| 1778080612 | 12.22° C | 96% | 1009.3 hPa | 0 mm | - | - | - |
| 1778078211 | 12.22° C | 94% | 1009.8 hPa | 0 mm | - | - | - |
| 1778076413 | 12.78° C | 93% | 1009.9 hPa | 0 mm | - | - | - |
| 1778075213 | 12.78° C | 93% | 1009.8 hPa | 0 mm | - | - | - |
| 1778074613 | 12.78° C | 93% | 1009.6 hPa | 0 mm | - | - | - |
| 1778068612 | 13.33° C | 90% | 1009.7 hPa | 0 mm | - | - | - |
| 1778068012 | 13.33° C | 90% | 1009.5 hPa | 0 mm | - | - | - |
| 1778067412 | 13.33° C | 89% | 1009.5 hPa | 0 mm | - | - | - |
| 1778066812 | 13.89° C | 89% | 1009.4 hPa | 0 mm | - | - | - |
| 1778066212 | 13.89° C | 88% | 1009.6 hPa | 0 mm | - | - | - |
| 1778065612 | 14.44° C | 86% | 1009.5 hPa | 0 mm | - | - | - |
| 1778065012 | 14.44° C | 86% | 1009.4 hPa | 0 mm | - | - | - |
| 1778061411 | 16.67° C | 78% | 1009.2 hPa | 0 mm | - | - | - |
| 1778060811 | 16.67° C | 77% | 1009.7 hPa | 0 mm | - | - | - |
| 1778060211 | 17.22° C | 77% | 1009.6 hPa | 0 mm | - | - | - |
| 1778059613 | 17.22° C | 75% | 1009.6 hPa | 0 mm | - | - | - |
| 1778059013 | 17.78° C | 75% | 1009.5 hPa | 0 mm | - | - | - |
| 1778058413 | 17.78° C | 74% | 1009.6 hPa | 0 mm | - | - | - |
| 1778057813 | 17.78° C | 74% | 1009.6 hPa | 0 mm | - | - | - |
| 1778057213 | 18.33° C | 75% | 1009.6 hPa | 0 mm | - | - | - |
| 1778056613 | 17.78° C | 73% | 1009.7 hPa | 0 mm | - | - | - |
| 1778055412 | 18.33° C | 72% | 1009.9 hPa | 0 mm | - | - | - |
| 1778054812 | 18.33° C | 72% | 1009.9 hPa | 0 mm | - | - | - |
| 1778054212 | 18.89° C | 70% | 1010.1 hPa | 0 mm | - | - | - |
* Rain latest hour (hover to see other rain measurements)
** Current wind speed in m/s (hover to see current wind gust speed)